sensor_id;sensor_type;location;lat;lon;timestamp;P1;durP1;ratioP1;P2;durP2;ratioP2
57085;SDS011;42964;42.910;23.792;2023-04-24T00:02:03;11.10;;;4.53;;
57085;SDS011;42964;42.910;23.792;2023-04-24T00:07:02;6.82;;;4.68;;
57085;SDS011;42964;42.910;23.792;2023-04-24T00:12:01;8.60;;;4.70;;
57085;SDS011;42964;42.910;23.792;2023-04-24T00:17:02;10.25;;;4.50;;
57085;SDS011;42964;42.910;23.792;2023-04-24T00:22:02;8.85;;;4.82;;
57085;SDS011;42964;42.910;23.792;2023-04-24T00:27:01;9.90;;;4.75;;
57085;SDS011;42964;42.910;23.792;2023-04-24T00:32:01;6.45;;;4.63;;
57085;SDS011;42964;42.910;23.792;2023-04-24T00:41:58;7.93;;;5.20;;
57085;SDS011;42964;42.910;23.792;2023-04-24T00:46:58;9.38;;;5.63;;
57085;SDS011;42964;42.910;23.792;2023-04-24T00:51:57;8.70;;;5.10;;
57085;SDS011;42964;42.910;23.792;2023-04-24T00:56:57;8.80;;;4.97;;
57085;SDS011;42964;42.910;23.792;2023-04-24T01:06:56;9.27;;;4.90;;
57085;SDS011;42964;42.910;23.792;2023-04-24T01:11:55;7.88;;;4.30;;
57085;SDS011;42964;42.910;23.792;2023-04-24T01:16:55;7.85;;;4.75;;
57085;SDS011;42964;42.910;23.792;2023-04-24T01:26:55;7.38;;;4.95;;
57085;SDS011;42964;42.910;23.792;2023-04-24T01:31:55;11.00;;;4.85;;
57085;SDS011;42964;42.910;23.792;2023-04-24T01:46:54;6.77;;;4.70;;
57085;SDS011;42964;42.910;23.792;2023-04-24T01:51:53;9.10;;;4.90;;
57085;SDS011;42964;42.910;23.792;2023-04-24T01:56:52;8.88;;;4.75;;
57085;SDS011;42964;42.910;23.792;2023-04-24T02:01:51;8.18;;;4.97;;
57085;SDS011;42964;42.910;23.792;2023-04-24T02:06:50;9.93;;;5.53;;
57085;SDS011;42964;42.910;23.792;2023-04-24T02:11:49;8.82;;;5.55;;
57085;SDS011;42964;42.910;23.792;2023-04-24T02:16:48;8.75;;;5.07;;
57085;SDS011;42964;42.910;23.792;2023-04-24T02:21:47;8.80;;;5.05;;
57085;SDS011;42964;42.910;23.792;2023-04-24T02:26:46;8.95;;;5.18;;
57085;SDS011;42964;42.910;23.792;2023-04-24T02:36:44;7.47;;;5.03;;
57085;SDS011;42964;42.910;23.792;2023-04-24T02:41:43;7.78;;;5.15;;
57085;SDS011;42964;42.910;23.792;2023-04-24T02:46:42;13.02;;;4.90;;
57085;SDS011;42964;42.910;23.792;2023-04-24T02:51:41;8.73;;;5.22;;
57085;SDS011;42964;42.910;23.792;2023-04-24T02:56:40;8.07;;;4.97;;
57085;SDS011;42964;42.910;23.792;2023-04-24T03:01:39;10.38;;;5.25;;
57085;SDS011;42964;42.910;23.792;2023-04-24T03:06:38;12.25;;;5.40;;
57085;SDS011;42964;42.910;23.792;2023-04-24T03:11:37;8.50;;;4.85;;
57085;SDS011;42964;42.910;23.792;2023-04-24T03:16:36;8.93;;;5.10;;
57085;SDS011;42964;42.910;23.792;2023-04-24T03:26:38;9.55;;;5.15;;
57085;SDS011;42964;42.910;23.792;2023-04-24T03:31:37;8.85;;;5.78;;
57085;SDS011;42964;42.910;23.792;2023-04-24T03:36:36;8.00;;;4.95;;
57085;SDS011;42964;42.910;23.792;2023-04-24T03:41:35;8.50;;;4.72;;
57085;SDS011;42964;42.910;23.792;2023-04-24T03:46:34;13.05;;;7.68;;
57085;SDS011;42964;42.910;23.792;2023-04-24T03:56:32;13.00;;;7.70;;
57085;SDS011;42964;42.910;23.792;2023-04-24T04:01:31;13.43;;;8.88;;
57085;SDS011;42964;42.910;23.792;2023-04-24T04:06:30;14.27;;;9.27;;
57085;SDS011;42964;42.910;23.792;2023-04-24T04:11:32;15.15;;;9.40;;
57085;SDS011;42964;42.910;23.792;2023-04-24T04:16:31;14.70;;;9.60;;
57085;SDS011;42964;42.910;23.792;2023-04-24T04:21:30;15.10;;;9.57;;
57085;SDS011;42964;42.910;23.792;2023-04-24T04:26:29;12.90;;;9.05;;
57085;SDS011;42964;42.910;23.792;2023-04-24T04:31:31;16.85;;;10.77;;
57085;SDS011;42964;42.910;23.792;2023-04-24T04:36:30;15.23;;;9.50;;
57085;SDS011;42964;42.910;23.792;2023-04-24T04:41:29;13.48;;;9.57;;
57085;SDS011;42964;42.910;23.792;2023-04-24T04:51:30;15.82;;;10.32;;
57085;SDS011;42964;42.910;23.792;2023-04-24T04:56:29;18.60;;;10.07;;
57085;SDS011;42964;42.910;23.792;2023-04-24T05:01:29;13.27;;;10.00;;
57085;SDS011;42964;42.910;23.792;2023-04-24T05:11:26;12.40;;;7.90;;
57085;SDS011;42964;42.910;23.792;2023-04-24T05:21:24;12.75;;;8.35;;
57085;SDS011;42964;42.910;23.792;2023-04-24T05:26:23;17.65;;;8.50;;
57085;SDS011;42964;42.910;23.792;2023-04-24T05:36:21;14.23;;;7.93;;
57085;SDS011;42964;42.910;23.792;2023-04-24T05:41:20;16.42;;;8.15;;
57085;SDS011;42964;42.910;23.792;2023-04-24T05:46:19;20.67;;;9.32;;
57085;SDS011;42964;42.910;23.792;2023-04-24T05:51:18;10.07;;;8.27;;
57085;SDS011;42964;42.910;23.792;2023-04-24T06:01:16;18.23;;;9.40;;
57085;SDS011;42964;42.910;23.792;2023-04-24T06:06:16;18.00;;;9.98;;
57085;SDS011;42964;42.910;23.792;2023-04-24T06:11:15;12.27;;;7.43;;
57085;SDS011;42964;42.910;23.792;2023-04-24T06:16:15;16.25;;;8.35;;
57085;SDS011;42964;42.910;23.792;2023-04-24T06:21:15;12.93;;;8.15;;
57085;SDS011;42964;42.910;23.792;2023-04-24T06:26:15;14.80;;;8.05;;
57085;SDS011;42964;42.910;23.792;2023-04-24T06:31:14;11.00;;;7.63;;
57085;SDS011;42964;42.910;23.792;2023-04-24T06:41:11;12.10;;;9.13;;
57085;SDS011;42964;42.910;23.792;2023-04-24T06:46:11;13.57;;;8.50;;
57085;SDS011;42964;42.910;23.792;2023-04-24T06:51:10;10.07;;;8.10;;
57085;SDS011;42964;42.910;23.792;2023-04-24T07:01:08;13.93;;;7.90;;
57085;SDS011;42964;42.910;23.792;2023-04-24T07:11:06;20.15;;;9.40;;
57085;SDS011;42964;42.910;23.792;2023-04-24T07:21:03;17.20;;;9.17;;
57085;SDS011;42964;42.910;23.792;2023-04-24T07:26:03;22.77;;;12.05;;
57085;SDS011;42964;42.910;23.792;2023-04-24T07:31:02;14.32;;;9.65;;
57085;SDS011;42964;42.910;23.792;2023-04-24T07:36:01;13.55;;;8.23;;
57085;SDS011;42964;42.910;23.792;2023-04-24T07:41:00;14.60;;;8.10;;
57085;SDS011;42964;42.910;23.792;2023-04-24T07:45:59;11.20;;;6.60;;
57085;SDS011;42964;42.910;23.792;2023-04-24T07:50:58;12.13;;;7.55;;
57085;SDS011;42964;42.910;23.792;2023-04-24T07:55:57;8.43;;;6.03;;
57085;SDS011;42964;42.910;23.792;2023-04-24T08:00:57;11.82;;;7.90;;
57085;SDS011;42964;42.910;23.792;2023-04-24T08:05:56;13.85;;;7.57;;
57085;SDS011;42964;42.910;23.792;2023-04-24T08:10:55;12.73;;;7.45;;
57085;SDS011;42964;42.910;23.792;2023-04-24T08:15:54;9.10;;;7.32;;
57085;SDS011;42964;42.910;23.792;2023-04-24T08:20:54;15.25;;;8.15;;
57085;SDS011;42964;42.910;23.792;2023-04-24T08:25:53;10.70;;;7.88;;
57085;SDS011;42964;42.910;23.792;2023-04-24T08:30:52;12.80;;;7.00;;
57085;SDS011;42964;42.910;23.792;2023-04-24T08:35:53;11.02;;;7.72;;
57085;SDS011;42964;42.910;23.792;2023-04-24T08:40:52;12.50;;;8.80;;
57085;SDS011;42964;42.910;23.792;2023-04-24T08:45:51;10.18;;;7.20;;
57085;SDS011;42964;42.910;23.792;2023-04-24T08:50:51;11.27;;;6.57;;
57085;SDS011;42964;42.910;23.792;2023-04-24T08:55:50;10.98;;;6.90;;
57085;SDS011;42964;42.910;23.792;2023-04-24T09:00:50;9.48;;;5.90;;
57085;SDS011;42964;42.910;23.792;2023-04-24T09:05:50;11.32;;;6.00;;
57085;SDS011;42964;42.910;23.792;2023-04-24T09:10:51;8.90;;;6.38;;
57085;SDS011;42964;42.910;23.792;2023-04-24T09:15:50;9.25;;;5.97;;
57085;SDS011;42964;42.910;23.792;2023-04-24T09:21:02;8.25;;;5.63;;
57085;SDS011;42964;42.910;23.792;2023-04-24T09:26:03;7.97;;;5.65;;
57085;SDS011;42964;42.910;23.792;2023-04-24T09:31:11;8.02;;;5.85;;
57085;SDS011;42964;42.910;23.792;2023-04-24T09:36:13;8.73;;;5.60;;
57085;SDS011;42964;42.910;23.792;2023-04-24T09:41:15;9.10;;;6.60;;
57085;SDS011;42964;42.910;23.792;2023-04-24T09:46:15;10.13;;;6.93;;
57085;SDS011;42964;42.910;23.792;2023-04-24T09:51:17;10.73;;;6.68;;
57085;SDS011;42964;42.910;23.792;2023-04-24T09:56:33;11.73;;;6.47;;
57085;SDS011;42964;42.910;23.792;2023-04-24T10:01:33;7.00;;;6.13;;
57085;SDS011;42964;42.910;23.792;2023-04-24T10:06:35;8.30;;;5.43;;
57085;SDS011;42964;42.910;23.792;2023-04-24T10:11:34;8.00;;;5.57;;
57085;SDS011;42964;42.910;23.792;2023-04-24T10:16:34;7.25;;;5.10;;
57085;SDS011;42964;42.910;23.792;2023-04-24T10:21:34;8.15;;;5.00;;
57085;SDS011;42964;42.910;23.792;2023-04-24T10:26:34;7.13;;;5.60;;
57085;SDS011;42964;42.910;23.792;2023-04-24T10:31:33;7.53;;;5.30;;
57085;SDS011;42964;42.910;23.792;2023-04-24T10:36:34;7.55;;;5.47;;
57085;SDS011;42964;42.910;23.792;2023-04-24T10:41:33;10.77;;;5.57;;
57085;SDS011;42964;42.910;23.792;2023-04-24T10:46:36;8.73;;;5.53;;
57085;SDS011;42964;42.910;23.792;2023-04-24T10:51:46;9.60;;;5.60;;
57085;SDS011;42964;42.910;23.792;2023-04-24T10:56:50;8.35;;;5.10;;
57085;SDS011;42964;42.910;23.792;2023-04-24T11:01:53;8.93;;;4.90;;
57085;SDS011;42964;42.910;23.792;2023-04-24T11:06:55;9.48;;;5.90;;
57085;SDS011;42964;42.910;23.792;2023-04-24T11:12:13;8.07;;;5.10;;
57085;SDS011;42964;42.910;23.792;2023-04-24T11:17:26;7.32;;;5.57;;
57085;SDS011;42964;42.910;23.792;2023-04-24T11:22:30;5.38;;;4.85;;
57085;SDS011;42964;42.910;23.792;2023-04-24T11:27:41;6.68;;;5.00;;
57085;SDS011;42964;42.910;23.792;2023-04-24T11:32:42;8.25;;;5.00;;
57085;SDS011;42964;42.910;23.792;2023-04-24T11:37:42;6.82;;;4.60;;
57085;SDS011;42964;42.910;23.792;2023-04-24T11:42:45;7.32;;;5.30;;
57085;SDS011;42964;42.910;23.792;2023-04-24T11:47:47;6.40;;;4.65;;
57085;SDS011;42964;42.910;23.792;2023-04-24T11:52:47;6.35;;;4.93;;
57085;SDS011;42964;42.910;23.792;2023-04-24T11:57:48;8.77;;;5.18;;
57085;SDS011;42964;42.910;23.792;2023-04-24T12:02:49;6.80;;;4.55;;
57085;SDS011;42964;42.910;23.792;2023-04-24T12:07:49;10.52;;;5.40;;
57085;SDS011;42964;42.910;23.792;2023-04-24T12:12:49;6.68;;;4.93;;
57085;SDS011;42964;42.910;23.792;2023-04-24T12:17:53;9.00;;;5.07;;
57085;SDS011;42964;42.910;23.792;2023-04-24T12:22:54;7.03;;;5.28;;
57085;SDS011;42964;42.910;23.792;2023-04-24T12:27:55;9.05;;;6.07;;
57085;SDS011;42964;42.910;23.792;2023-04-24T12:33:10;7.15;;;5.03;;
57085;SDS011;42964;42.910;23.792;2023-04-24T12:38:10;5.40;;;4.45;;
57085;SDS011;42964;42.910;23.792;2023-04-24T12:43:14;12.32;;;6.60;;
57085;SDS011;42964;42.910;23.792;2023-04-24T12:48:14;11.20;;;7.38;;
57085;SDS011;42964;42.910;23.792;2023-04-24T12:53:13;9.32;;;7.45;;
57085;SDS011;42964;42.910;23.792;2023-04-24T12:58:13;9.93;;;7.85;;
57085;SDS011;42964;42.910;23.792;2023-04-24T13:03:12;9.10;;;7.85;;
57085;SDS011;42964;42.910;23.792;2023-04-24T13:08:11;10.68;;;9.20;;
57085;SDS011;42964;42.910;23.792;2023-04-24T13:13:11;10.00;;;8.13;;
57085;SDS011;42964;42.910;23.792;2023-04-24T13:18:10;12.50;;;8.60;;
57085;SDS011;42964;42.910;23.792;2023-04-24T13:23:09;11.68;;;8.50;;
57085;SDS011;42964;42.910;23.792;2023-04-24T13:28:08;17.52;;;7.43;;
57085;SDS011;42964;42.910;23.792;2023-04-24T13:33:07;10.93;;;7.30;;
57085;SDS011;42964;42.910;23.792;2023-04-24T13:38:06;11.68;;;7.00;;
57085;SDS011;42964;42.910;23.792;2023-04-24T13:43:05;11.27;;;8.88;;
57085;SDS011;42964;42.910;23.792;2023-04-24T13:48:04;9.40;;;7.32;;
57085;SDS011;42964;42.910;23.792;2023-04-24T13:53:03;14.32;;;8.00;;
57085;SDS011;42964;42.910;23.792;2023-04-24T13:58:02;9.90;;;7.22;;
57085;SDS011;42964;42.910;23.792;2023-04-24T14:03:01;8.98;;;7.05;;
57085;SDS011;42964;42.910;23.792;2023-04-24T14:08:00;12.38;;;7.95;;
57085;SDS011;42964;42.910;23.792;2023-04-24T14:12:59;9.00;;;6.68;;
57085;SDS011;42964;42.910;23.792;2023-04-24T14:17:58;8.40;;;6.30;;
57085;SDS011;42964;42.910;23.792;2023-04-24T14:23:00;8.68;;;7.15;;
57085;SDS011;42964;42.910;23.792;2023-04-24T14:28:01;8.82;;;5.90;;
57085;SDS011;42964;42.910;23.792;2023-04-24T14:33:00;5.93;;;5.10;;
57085;SDS011;42964;42.910;23.792;2023-04-24T14:38:00;8.00;;;6.15;;
57085;SDS011;42964;42.910;23.792;2023-04-24T14:43:01;8.68;;;6.00;;
57085;SDS011;42964;42.910;23.792;2023-04-24T14:48:00;11.98;;;6.70;;
57085;SDS011;42964;42.910;23.792;2023-04-24T14:52:59;6.85;;;4.93;;
57085;SDS011;42964;42.910;23.792;2023-04-24T14:58:00;9.75;;;5.80;;
57085;SDS011;42964;42.910;23.792;2023-04-24T15:03:00;6.45;;;5.43;;
57085;SDS011;42964;42.910;23.792;2023-04-24T15:07:59;9.48;;;7.07;;
57085;SDS011;42964;42.910;23.792;2023-04-24T15:12:58;8.70;;;6.38;;
57085;SDS011;42964;42.910;23.792;2023-04-24T15:17:57;9.05;;;6.60;;
57085;SDS011;42964;42.910;23.792;2023-04-24T15:22:56;8.27;;;6.15;;
57085;SDS011;42964;42.910;23.792;2023-04-24T15:27:57;10.55;;;7.05;;
57085;SDS011;42964;42.910;23.792;2023-04-24T15:32:57;8.32;;;6.60;;
57085;SDS011;42964;42.910;23.792;2023-04-24T15:37:56;6.93;;;5.30;;
57085;SDS011;42964;42.910;23.792;2023-04-24T15:42:55;10.85;;;8.27;;
57085;SDS011;42964;42.910;23.792;2023-04-24T15:47:54;15.13;;;8.02;;
57085;SDS011;42964;42.910;23.792;2023-04-24T15:52:53;10.82;;;8.50;;
57085;SDS011;42964;42.910;23.792;2023-04-24T15:57:52;13.35;;;7.55;;
57085;SDS011;42964;42.910;23.792;2023-04-24T16:02:51;13.30;;;9.27;;
57085;SDS011;42964;42.910;23.792;2023-04-24T16:07:50;14.23;;;9.93;;
57085;SDS011;42964;42.910;23.792;2023-04-24T16:12:49;14.18;;;10.45;;
57085;SDS011;42964;42.910;23.792;2023-04-24T16:17:52;11.55;;;9.20;;
57085;SDS011;42964;42.910;23.792;2023-04-24T16:22:51;13.38;;;11.32;;
57085;SDS011;42964;42.910;23.792;2023-04-24T16:32:50;12.32;;;9.85;;
57085;SDS011;42964;42.910;23.792;2023-04-24T16:42:47;13.05;;;9.50;;
57085;SDS011;42964;42.910;23.792;2023-04-24T16:47:47;11.73;;;8.98;;
57085;SDS011;42964;42.910;23.792;2023-04-24T16:57:45;18.38;;;14.52;;
57085;SDS011;42964;42.910;23.792;2023-04-24T17:07:45;24.08;;;17.88;;
57085;SDS011;42964;42.910;23.792;2023-04-24T17:17:43;22.63;;;19.42;;
57085;SDS011;42964;42.910;23.792;2023-04-24T17:22:43;22.92;;;15.10;;
57085;SDS011;42964;42.910;23.792;2023-04-24T17:32:42;18.83;;;13.93;;
57085;SDS011;42964;42.910;23.792;2023-04-24T17:37:41;13.75;;;11.07;;
57085;SDS011;42964;42.910;23.792;2023-04-24T17:42:41;13.57;;;10.85;;
57085;SDS011;42964;42.910;23.792;2023-04-24T17:52:39;15.88;;;11.00;;
57085;SDS011;42964;42.910;23.792;2023-04-24T17:57:38;16.38;;;12.32;;
57085;SDS011;42964;42.910;23.792;2023-04-24T18:07:36;19.35;;;15.68;;
57085;SDS011;42964;42.910;23.792;2023-04-24T18:12:36;17.90;;;13.85;;
57085;SDS011;42964;42.910;23.792;2023-04-24T18:22:34;19.08;;;14.02;;
57085;SDS011;42964;42.910;23.792;2023-04-24T18:27:33;21.95;;;15.07;;
57085;SDS011;42964;42.910;23.792;2023-04-24T18:32:33;18.02;;;13.20;;
57085;SDS011;42964;42.910;23.792;2023-04-24T18:37:32;21.15;;;15.35;;
57085;SDS011;42964;42.910;23.792;2023-04-24T18:47:30;21.55;;;15.77;;
57085;SDS011;42964;42.910;23.792;2023-04-24T18:57:28;28.70;;;21.75;;
57085;SDS011;42964;42.910;23.792;2023-04-24T19:02:27;33.42;;;24.77;;
57085;SDS011;42964;42.910;23.792;2023-04-24T19:07:26;31.20;;;23.05;;
57085;SDS011;42964;42.910;23.792;2023-04-24T19:12:26;30.38;;;22.90;;
57085;SDS011;42964;42.910;23.792;2023-04-24T19:22:24;33.63;;;25.60;;
57085;SDS011;42964;42.910;23.792;2023-04-24T19:27:23;40.95;;;30.50;;
57085;SDS011;42964;42.910;23.792;2023-04-24T19:32:22;40.45;;;28.05;;
57085;SDS011;42964;42.910;23.792;2023-04-24T19:37:21;29.88;;;23.45;;
57085;SDS011;42964;42.910;23.792;2023-04-24T19:42:20;27.48;;;20.63;;
57085;SDS011;42964;42.910;23.792;2023-04-24T19:47:19;28.85;;;22.88;;
57085;SDS011;42964;42.910;23.792;2023-04-24T19:52:18;29.95;;;24.63;;
57085;SDS011;42964;42.910;23.792;2023-04-24T19:57:17;47.15;;;35.00;;
57085;SDS011;42964;42.910;23.792;2023-04-24T20:07:15;45.13;;;31.38;;
57085;SDS011;42964;42.910;23.792;2023-04-24T20:17:14;34.10;;;25.33;;
57085;SDS011;42964;42.910;23.792;2023-04-24T20:22:13;40.17;;;28.33;;
57085;SDS011;42964;42.910;23.792;2023-04-24T20:27:12;41.88;;;28.33;;
57085;SDS011;42964;42.910;23.792;2023-04-24T20:32:12;38.50;;;26.77;;
57085;SDS011;42964;42.910;23.792;2023-04-24T20:42:10;49.83;;;36.38;;
57085;SDS011;42964;42.910;23.792;2023-04-24T20:47:08;50.83;;;37.38;;
57085;SDS011;42964;42.910;23.792;2023-04-24T20:52:07;37.97;;;27.88;;
57085;SDS011;42964;42.910;23.792;2023-04-24T20:57:07;28.63;;;21.00;;
57085;SDS011;42964;42.910;23.792;2023-04-24T21:02:06;27.13;;;18.75;;
57085;SDS011;42964;42.910;23.792;2023-04-24T21:12:04;25.52;;;18.50;;
57085;SDS011;42964;42.910;23.792;2023-04-24T21:17:03;21.10;;;16.33;;
57085;SDS011;42964;42.910;23.792;2023-04-24T21:22:02;17.30;;;12.80;;
57085;SDS011;42964;42.910;23.792;2023-04-24T21:32:01;15.30;;;11.60;;
57085;SDS011;42964;42.910;23.792;2023-04-24T21:37:00;13.43;;;10.25;;
57085;SDS011;42964;42.910;23.792;2023-04-24T21:46:58;8.70;;;6.53;;
57085;SDS011;42964;42.910;23.792;2023-04-24T21:56:56;12.70;;;8.13;;
57085;SDS011;42964;42.910;23.792;2023-04-24T22:06:53;14.48;;;10.93;;
57085;SDS011;42964;42.910;23.792;2023-04-24T22:11:52;19.60;;;12.32;;
57085;SDS011;42964;42.910;23.792;2023-04-24T22:16:51;18.00;;;12.82;;
57085;SDS011;42964;42.910;23.792;2023-04-24T22:21:50;17.33;;;12.88;;
57085;SDS011;42964;42.910;23.792;2023-04-24T22:31:48;17.15;;;13.00;;
57085;SDS011;42964;42.910;23.792;2023-04-24T22:36:47;19.50;;;13.07;;
57085;SDS011;42964;42.910;23.792;2023-04-24T22:46:45;22.17;;;14.30;;
57085;SDS011;42964;42.910;23.792;2023-04-24T22:51:45;17.73;;;13.20;;
57085;SDS011;42964;42.910;23.792;2023-04-24T22:56:45;14.90;;;12.15;;
57085;SDS011;42964;42.910;23.792;2023-04-24T23:06:43;15.07;;;9.85;;
57085;SDS011;42964;42.910;23.792;2023-04-24T23:11:42;14.20;;;9.88;;
57085;SDS011;42964;42.910;23.792;2023-04-24T23:21:40;16.75;;;10.05;;
57085;SDS011;42964;42.910;23.792;2023-04-24T23:26:39;13.95;;;9.23;;
57085;SDS011;42964;42.910;23.792;2023-04-24T23:31:38;10.23;;;7.00;;
57085;SDS011;42964;42.910;23.792;2023-04-24T23:36:37;9.65;;;6.28;;
57085;SDS011;42964;42.910;23.792;2023-04-24T23:41:36;9.18;;;6.63;;
57085;SDS011;42964;42.910;23.792;2023-04-24T23:51:34;8.02;;;4.63;;
57085;SDS011;42964;42.910;23.792;2023-04-24T23:56:33;5.95;;;4.15;;
